ACV - California Redwood Coast Humboldt County

Pirep is a free, collaborative database of all public and private airports located within the United States. All pilots are welcome to contribute, edit, and improve any airport they have local knowledge about, no registration required.
Are you familiar with this airport? Help out other pilots by adding your local knowledge.
Uploaded photos will be licensed under a CC BY-SA 4.0 license. Please only upload photos you have the rights to use.
Tags
Public
Undocu­mented
METAR / TAF
Edit Tags
Food
Camping
Lodging
Car Rental
Bicycles
Swimming
Golfing
Fishing
Hot Springs
Museum
Flying Clubs
Airpark
Upcoming Events
No upcoming events. Is anything happening here soon?
*
*
*

Where exactly on/near the airport is this event taking place?

Is there a webpage with more information for this event?

Who should be contacted for more information?

What is this event all about?

Repeat every
Description
Transient Parking
Fuel Location
Landing & Tie-down Fees
Crew Car Availability
Flying Clubs
WiFi Access
Airport Statistics
Location: Arcata/Eureka, CA
Elevation: 222ft
Sectional: Klamath Falls
Activation date: Mar 1943
Fuel: 100LL, A (prices)
Runway 14/32: 6,046ft
Runway 01/19: 4,501ft
Access: Open to the public
Current Weather — MVFR
  • Weather data is strictly informational and not for flight planning purposes.
  • METAR
    2024-05-26 04:53:00 PDT
    Ceiling Wind Temperature Dewpoint Weather Visbility
    1,500ft Calm 46°F 44°F N/A 10SM
    Clouds: Overcast @ 1,500ft
    Raw: KACV 261153Z AUTO 00000KT 10SM OVC015 08/07 A3011 RMK AO2 SLP203 T00830067 10089 20056 53002
  • TAF
    2024-05-26 03:00:00 PDT – 2024-05-26 05:00:00 PDT
    Ceiling Wind Weather Visbility
    Sky clear 350° @ 4kt N/A 6SM
    Clouds: @ ft
    Raw: KACV 261018Z 2610/2706 35004KT P6SM SKC TEMPO 2610/2612 BKN010 FM261200 10002KT P6SM OVC005 FM261400 VRB03KT 3SM BR BKN003 FM261800 30006KT P6SM OVC015 FM270300 34009KT P6SM OVC015
  • TAF
    2024-05-26 03:00:00 PDT – 2024-05-26 05:00:00 PDT
    Ceiling Wind Weather Visbility
    1,000ft ° @ kt N/A SM
    Clouds: Broken @ 1,000ft
    Raw: KACV 261018Z 2610/2706 35004KT P6SM SKC TEMPO 2610/2612 BKN010 FM261200 10002KT P6SM OVC005 FM261400 VRB03KT 3SM BR BKN003 FM261800 30006KT P6SM OVC015 FM270300 34009KT P6SM OVC015
  • TAF
    2024-05-26 05:00:00 PDT – 2024-05-26 07:00:00 PDT
    Ceiling Wind Weather Visbility
    500ft 100° @ 2kt N/A 6SM
    Clouds: Overcast @ 500ft
    Raw: KACV 261018Z 2610/2706 35004KT P6SM SKC TEMPO 2610/2612 BKN010 FM261200 10002KT P6SM OVC005 FM261400 VRB03KT 3SM BR BKN003 FM261800 30006KT P6SM OVC015 FM270300 34009KT P6SM OVC015
  • TAF
    2024-05-26 07:00:00 PDT – 2024-05-26 11:00:00 PDT
    Ceiling Wind Weather Visbility
    300ft Variable Mist 3SM
    Clouds: Broken @ 300ft
    Raw: KACV 261018Z 2610/2706 35004KT P6SM SKC TEMPO 2610/2612 BKN010 FM261200 10002KT P6SM OVC005 FM261400 VRB03KT 3SM BR BKN003 FM261800 30006KT P6SM OVC015 FM270300 34009KT P6SM OVC015
  • TAF
    2024-05-26 11:00:00 PDT – 2024-05-26 20:00:00 PDT
    Ceiling Wind Weather Visbility
    1,500ft 300° @ 6kt N/A 6SM
    Clouds: Overcast @ 1,500ft
    Raw: KACV 261018Z 2610/2706 35004KT P6SM SKC TEMPO 2610/2612 BKN010 FM261200 10002KT P6SM OVC005 FM261400 VRB03KT 3SM BR BKN003 FM261800 30006KT P6SM OVC015 FM270300 34009KT P6SM OVC015
  • TAF
    2024-05-26 20:00:00 PDT – 2024-05-26 23:00:00 PDT
    Ceiling Wind Weather Visbility
    1,500ft 340° @ 9kt N/A 6SM
    Clouds: Overcast @ 1,500ft
    Raw: KACV 261018Z 2610/2706 35004KT P6SM SKC TEMPO 2610/2612 BKN010 FM261200 10002KT P6SM OVC005 FM261400 VRB03KT 3SM BR BKN003 FM261800 30006KT P6SM OVC015 FM270300 34009KT P6SM OVC015
Click/tap to add an annotation marker to the map
Airport Webcams
No webcams added yet.
Direct links to live image URLs will be displayed inline on this page. URLs to separate webpages will be linked to.
URL:
Direct links to live image URLs will be displayed inline on this page. URLs to separate webpages will be linked to.
URL:
Remarks
  • Rwy 1/19 not avbl for sked acr opns with more than 9 psgr seats or unsked acr at least 31 psgr seats.
  • For cd if una to ctc on fss freq, ctc seattle artcc at 253-351-3694.
  • Actvt malsr rwy 32; tdzl rwy 32; c/l lgts rwy 32; reil rwy 14; papi rwy 14 & 32; hirl rwy 14/32 - ctaf. mirl rwy 01/19, reil rwy 01, and vasi rwy 01 ppr ctc 707-382-2551 or 707-496-0102.
  • Fuel avbl 0400-2400 local, and after hours with advanced notice.
Comments
Leave a comment What was your experience like at this airport?